New Richmond Rgnl Information

FAA: RNH - ICAO: KRNH

New Richmond Rgnl (Airport) Location

State Wisconsin
County St Croix
City New Richmond
New Richmond Rgnl (Airport) is 2 miles north of New Richmond, WI.
Latitude 45-08-52.0000N
Longitude 092-32-21.0000W
Elevation 997ft

New Richmond Rgnl METARs

METAR KRNH 170355Z AUTO 04003KT 10SM CLR 11/04 A2997 RMK AO2 T01140040
Altimeter 29.97"
Temperature 11.4°C (52.5°F)
Wind 40° at 3KT
Clouds Skies are clear.
Visibility 10.0mi
Time observed: 2022-05-17T03:55:00Z

New Richmond Rgnl (Airport) Details

Status Operational
Activation July 1964
Ownership Public
Usage Public
Chart GREEN BAY
ATC on-site No
Beacon schedule sunset-sunrise
Beacon color clear green

New Richmond Rgnl (Airport) Contacts

Owner CITY OF NEW RICHMOND
Owner address 156 E FIRST ST, NEW RICHMOND, WI 54017
Owner phone 715-246-4268
Manager N/A
Manager address N/A, N/A
Manager phone N/A

New Richmond Rgnl Radio Frequencies

New Richmond Rgnl (Airport) Radio Frequencies

UNICOM 122.975
Common traffic advisory frequency (CTAF) 122.975